Time;durP1;ratioP1;P1;durP2;ratioP2;P2;SDS_P1;SDS_P2;PMS_P1;PMS_P2;Temp;Humidity;BMP_temperature;BMP_pressure;BME280_temperature;BME280_humidity;BME280_pressure;Samples;Min_cycle;Max_cycle;Signal;HPM_P1;HPM_P2
2024/03/06 00:00:09;;;;;;;;;;;;;;;;;;5038778;28;4709;-63
2024/03/06 00:02:35;;;;;;;;;;;;;;;;;;5041364;28;3389;-63
2024/03/06 00:05:01;;;;;;;;;;;;;;;;;;5039542;28;4590;-62
2024/03/06 00:07:26;;;;;;;;;;;;;;;;;;5041116;28;5092;-62
2024/03/06 00:09:52;;;;;;;;;;;;;;;;;;5048047;28;5196;-62
2024/03/06 00:12:18;;;;;;;;;;;;;;;;;;5047452;28;4527;-62
2024/03/06 00:14:43;;;;;;;;;;;;;;;;;;5039407;28;4198;-62
2024/03/06 00:17:09;;;;;;;;;;;;;;;;;;5063909;28;5086;-62
2024/03/06 00:19:34;;;;;;;;;;;;;;;;;;5040080;28;5234;-62
2024/03/06 00:22:01;;;;;;;;;;;;;;;;;;5045177;28;5687;-61
2024/03/06 00:24:26;;;;;;;;;;;;;;;;;;5054014;28;5213;-62
2024/03/06 00:26:51;;;;;;;;;;;;;;;;;;5036678;28;3503;-61
2024/03/06 00:29:17;;;;;;;;;;;;;;;;;;5041469;28;5082;-65
2024/03/06 00:31:42;;;;;;;;;;;;;;;;;;5044277;28;4660;-62
2024/03/06 00:34:08;;;;;;;;;;;;;;;;;;5041192;28;4711;-63
2024/03/06 00:36:33;;;;;;;;;;;;;;;;;;5048760;28;5114;-62
2024/03/06 00:38:59;;;;;;;;;;;;;;;;;;5037899;28;4691;-63
2024/03/06 00:41:24;;;;;;;;;;;;;;;;;;5052585;28;3492;-63
2024/03/06 00:43:50;;;;;;;;;;;;;;;;;;5049160;28;5181;-63
2024/03/06 00:46:15;;;;;;;;;;;;;;;;;;5039481;28;4934;-61
2024/03/06 00:48:40;;;;;;;;;;;;;;;;;;5050663;28;5293;-62
2024/03/06 00:51:07;;;;;;;;;;;;;;;;;;5047438;28;5144;-63
2024/03/06 00:53:32;;;;;;;;;;;;;;;;;;5050724;28;1167;-62
2024/03/06 00:55:57;;;;;;;;;;;;;;;;;;5049634;28;5029;-64
2024/03/06 00:58:23;;;;;;;;;;;;;;;;;;5051284;28;5172;-62
2024/03/06 01:00:48;;;;;;;;;;;;;;;;;;5051813;28;5116;-62
2024/03/06 01:03:14;;;;;;;;;;;;;;;;;;5051237;28;5133;-63
2024/03/06 01:05:39;;;;;;;;;;;;;;;;;;5054102;28;1081;-63
2024/03/06 01:08:05;;;;;;;;;;;;;;;;;;5029530;28;4782;-64
2024/03/06 01:10:30;;;;;;;;;;;;;;;;;;5019736;28;5064;-65
2024/03/06 01:12:56;;;;;;;;;;;;;;;;;;5025540;28;4973;-61
2024/03/06 01:15:21;;;;;;;;;;;;;;;;;;5030789;28;5089;-62
2024/03/06 01:17:46;;;;;;;;;;;;;;;;;;5028767;28;3319;-61
2024/03/06 01:20:12;;;;;;;;;;;;;;;;;;5026663;28;5153;-62
2024/03/06 01:22:37;;;;;;;;;;;;;;;;;;5026591;28;5131;-62
2024/03/06 01:25:02;;;;;;;;;;;;;;;;;;5027001;28;5330;-63
2024/03/06 01:27:28;;;;;;;;;;;;;;;;;;5028820;28;5109;-63
2024/03/06 01:29:53;;;;;;;;;;;;;;;;;;5044082;28;3302;-61
2024/03/06 01:32:18;;;;;;;;;;;;;;;;;;5027254;28;4942;-62
2024/03/06 01:34:44;;;;;;;;;;;;;;;;;;5023581;28;5307;-63
2024/03/06 01:37:09;;;;;;;;;;;;;;;;;;5022066;28;5148;-62
2024/03/06 01:39:35;;;;;;;;;;;;;;;;;;5024764;28;5056;-63
2024/03/06 01:42:01;;;;;;;;;;;;;;;;;;5023908;28;5114;-62
2024/03/06 01:44:26;;;;;;;;;;;;;;;;;;5027209;28;3589;-62
2024/03/06 01:46:51;;;;;;;;;;;;;;;;;;5022751;28;4466;-61
2024/03/06 01:49:17;;;;;;;;;;;;;;;;;;5027109;28;5027;-66
2024/03/06 01:51:42;;;;;;;;;;;;;;;;;;5024388;28;4927;-61
2024/03/06 01:54:08;;;;;;;;;;;;;;;;;;5043021;28;5136;-63
2024/03/06 01:56:33;;;;;;;;;;;;;;;;;;5024023;28;3404;-62
2024/03/06 01:58:59;;;;;;;;;;;;;;;;;;5041964;28;5109;-63
2024/03/06 02:01:24;;;;;;;;;;;;;;;;;;5025553;28;4886;-62
2024/03/06 02:03:49;;;;;;;;;;;;;;;;;;5025756;28;5113;-61
2024/03/06 02:06:19;;;;;;;;;;;;;;;;;;5042044;28;5064;-62
2024/03/06 02:08:44;;;;;;;;;;;;;;;;;;5045601;28;3170;-61
2024/03/06 02:11:11;;;;;;;;;;;;;;;;;;5047851;28;4851;-61
2024/03/06 02:13:36;;;;;;;;;;;;;;;;;;5049940;28;4601;-62
2024/03/06 02:16:02;;;;;;;;;;;;;;;;;;5056059;28;4624;-61
2024/03/06 02:18:27;;;;;;;;;;;;;;;;;;5047603;28;5253;-61
2024/03/06 02:20:52;;;;;;;;;;;;;;;;;;5044240;28;3682;-62
2024/03/06 02:23:20;;;;;;;;;;;;;;;;;;5043708;28;4849;-63
2024/03/06 02:25:47;;;;;;;;;;;;;;;;;;5067021;28;5164;-64
2024/03/06 02:28:12;;;;;;;;;;;;;;;;;;5021521;28;5109;-62
2024/03/06 02:30:37;;;;;;;;;;;;;;;;;;5050608;28;5107;-61
2024/03/06 02:33:12;;;;;;;;;;;;;;;;;;5051317;28;4970;-61
2024/03/06 02:35:39;;;;;;;;;;;;;;;;;;5047334;28;3433;-62
2024/03/06 02:38:05;;;;;;;;;;;;;;;;;;5045837;28;5076;-62
2024/03/06 02:40:30;;;;;;;;;;;;;;;;;;5046680;28;4632;-62
2024/03/06 02:42:55;;;;;;;;;;;;;;;;;;5039070;28;5094;-61
2024/03/06 02:45:21;;;;;;;;;;;;;;;;;;5043274;28;4760;-63
2024/03/06 02:47:46;;;;;;;;;;;;;;;;;;5050854;28;3207;-63
2024/03/06 02:50:11;;;;;;;;;;;;;;;;;;5055227;28;6073;-63
2024/03/06 02:52:37;;;;;;;;;;;;;;;;;;5046225;28;5118;-63
2024/03/06 02:55:02;;;;;;;;;;;;;;;;;;5044788;28;5084;-62
2024/03/06 02:57:28;;;;;;;;;;;;;;;;;;5053640;28;5326;-66
2024/03/06 02:59:53;;;;;;;;;;;;;;;;;;5048156;28;3335;-60
2024/03/06 03:02:19;;;;;;;;;;;;;;;;;;5046811;28;4990;-63
2024/03/06 03:04:44;;;;;;;;;;;;;;;;;;5052310;28;4865;-60
2024/03/06 03:07:10;;;;;;;;;;;;;;;;;;5041820;28;5055;-60
2024/03/06 03:09:36;;;;;;;;;;;;;;;;;;5040590;28;4759;-60
2024/03/06 03:12:01;;;;;;;;;;;;;;;;;;5040181;28;5151;-60
2024/03/06 03:14:27;;;;;;;;;;;;;;;;;;5042486;28;3392;-62
2024/03/06 03:16:53;;;;;;;;;;;;;;;;;;5036293;28;4758;-60
2024/03/06 03:19:18;;;;;;;;;;;;;;;;;;5042799;28;4588;-60
2024/03/06 03:21:44;;;;;;;;;;;;;;;;;;5047895;28;5224;-61
2024/03/06 03:24:09;;;;;;;;;;;;;;;;;;5058190;28;5074;-60
2024/03/06 03:26:36;;;;;;;;;;;;;;;;;;5036554;28;3486;-61
2024/03/06 03:29:01;;;;;;;;;;;;;;;;;;5045125;28;4488;-60
2024/03/06 03:31:26;;;;;;;;;;;;;;;;;;5044332;28;5073;-60
2024/03/06 03:33:51;;;;;;;;;;;;;;;;;;5046184;28;5057;-60
2024/03/06 03:36:17;;;;;;;;;;;;;;;;;;5039129;28;5236;-64
2024/03/06 03:38:42;;;;;;;;;;;;;;;;;;5047008;28;3514;-61
2024/03/06 03:41:12;;;;;;;;;;;;;;;;;;5044556;28;5161;-60
2024/03/06 03:43:39;;;;;;;;;;;;;;;;;;5053159;28;5042;-60
2024/03/06 03:46:04;;;;;;;;;;;;;;;;;;5035296;28;5136;-60
2024/03/06 03:48:30;;;;;;;;;;;;;;;;;;5039396;28;5068;-60
2024/03/06 03:50:55;;;;;;;;;;;;;;;;;;5052282;28;5066;-60
2024/03/06 03:53:20;;;;;;;;;;;;;;;;;;5045572;28;3447;-60
2024/03/06 03:55:46;;;;;;;;;;;;;;;;;;5048712;28;5097;-62
2024/03/06 03:58:11;;;;;;;;;;;;;;;;;;5056128;28;4631;-60
2024/03/06 04:00:38;;;;;;;;;;;;;;;;;;5045694;28;4919;-60
2024/03/06 04:03:03;;;;;;;;;;;;;;;;;;5044957;28;5012;-61
2024/03/06 04:05:29;;;;;;;;;;;;;;;;;;5050673;28;3411;-62
2024/03/06 04:07:54;;;;;;;;;;;;;;;;;;5042120;28;5482;-62
2024/03/06 04:10:19;;;;;;;;;;;;;;;;;;5029690;28;5110;-60
2024/03/06 04:12:44;;;;;;;;;;;;;;;;;;5058174;28;4525;-60
2024/03/06 04:15:10;;;;;;;;;;;;;;;;;;5052559;28;4675;-60
2024/03/06 04:17:36;;;;;;;;;;;;;;;;;;5050236;28;3507;-60
2024/03/06 04:20:02;;;;;;;;;;;;;;;;;;5053315;28;5189;-60
2024/03/06 04:22:28;;;;;;;;;;;;;;;;;;5037089;28;5081;-59
2024/03/06 04:24:55;;;;;;;;;;;;;;;;;;5042991;28;4933;-62
2024/03/06 04:27:21;;;;;;;;;;;;;;;;;;5059958;28;4493;-60
2024/03/06 04:29:46;;;;;;;;;;;;;;;;;;5054055;28;1077;-60
2024/03/06 04:32:11;;;;;;;;;;;;;;;;;;5051701;28;4476;-61
2024/03/06 04:34:37;;;;;;;;;;;;;;;;;;5050778;28;5083;-61
2024/03/06 04:37:02;;;;;;;;;;;;;;;;;;5052683;28;5090;-62
2024/03/06 04:39:28;;;;;;;;;;;;;;;;;;5029387;28;5020;-62
2024/03/06 04:41:53;;;;;;;;;;;;;;;;;;5056012;28;3304;-60
2024/03/06 04:44:18;;;;;;;;;;;;;;;;;;5049235;28;5140;-61
2024/03/06 04:46:43;;;;;;;;;;;;;;;;;;5050660;28;4638;-65
2024/03/06 04:49:09;;;;;;;;;;;;;;;;;;5050647;28;5082;-62
2024/03/06 04:51:34;;;;;;;;;;;;;;;;;;5050990;28;4534;-62
2024/03/06 04:53:59;;;;;;;;;;;;;;;;;;5061785;28;4971;-63
2024/03/06 04:56:25;;;;;;;;;;;;;;;;;;5063152;28;1264;-64
2024/03/06 04:58:52;;;;;;;;;;;;;;;;;;5060966;28;4471;-62
2024/03/06 05:01:17;;;;;;;;;;;;;;;;;;5061178;28;4883;-62
2024/03/06 05:03:42;;;;;;;;;;;;;;;;;;5033482;28;5068;-62
2024/03/06 05:06:08;;;;;;;;;;;;;;;;;;5057633;28;4512;-60
2024/03/06 05:08:33;;;;;;;;;;;;;;;;;;5036709;28;3559;-63
2024/03/06 05:10:59;;;;;;;;;;;;;;;;;;5033018;28;5000;-62
2024/03/06 05:13:26;;;;;;;;;;;;;;;;;;5017903;28;4497;-63
2024/03/06 05:15:51;;;;;;;;;;;;;;;;;;5037136;28;5118;-61
2024/03/06 05:18:17;;;;;;;;;;;;;;;;;;5040662;28;4524;-61
2024/03/06 05:20:43;;;;;;;;;;;;;;;;;;5061824;28;1353;-61
2024/03/06 05:23:08;;;;;;;;;;;;;;;;;;5035377;28;5042;-61
2024/03/06 05:25:34;;;;;;;;;;;;;;;;;;5036538;28;5096;-62
2024/03/06 05:27:59;;;;;;;;;;;;;;;;;;5035141;28;5083;-62
2024/03/06 05:30:24;;;;;;;;;;;;;;;;;;5037309;28;5263;-61
2024/03/06 05:32:50;;;;;;;;;;;;;;;;;;5038779;28;1113;-63
2024/03/06 05:35:15;;;;;;;;;;;;;;;;;;5026253;28;5048;-62
2024/03/06 05:37:41;;;;;;;;;;;;;;;;;;5026106;28;5153;-62
2024/03/06 05:40:07;;;;;;;;;;;;;;;;;;5027707;28;4566;-62
2024/03/06 05:42:32;;;;;;;;;;;;;;;;;;5030826;28;5015;-62
2024/03/06 05:45:00;;;;;;;;;;;;;;;;;;5028061;28;5128;-62
2024/03/06 05:47:26;;;;;;;;;;;;;;;;;;5023374;28;3454;-62
2024/03/06 05:49:51;;;;;;;;;;;;;;;;;;5025279;28;5058;-64
2024/03/06 05:52:16;;;;;;;;;;;;;;;;;;5029684;28;4972;-64
2024/03/06 05:54:42;;;;;;;;;;;;;;;;;;5027749;28;4629;-62
2024/03/06 05:57:07;;;;;;;;;;;;;;;;;;5018390;28;5059;-64
2024/03/06 05:59:32;;;;;;;;;;;;;;;;;;5021489;28;3539;-63
2024/03/06 06:01:58;;;;;;;;;;;;;;;;;;5019050;28;4504;-62
2024/03/06 06:04:23;;;;;;;;;;;;;;;;;;5022789;28;5066;-61
2024/03/06 06:06:48;;;;;;;;;;;;;;;;;;5033627;28;4529;-61
2024/03/06 06:09:15;;;;;;;;;;;;;;;;;;5045583;28;4942;-62
2024/03/06 06:11:44;;;;;;;;;;;;;;;;;;5059307;28;1176;-62
2024/03/06 06:14:09;;;;;;;;;;;;;;;;;;5047627;28;5024;-63
2024/03/06 06:16:38;;;;;;;;;;;;;;;;;;5051058;28;5106;-61
2024/03/06 06:19:03;;;;;;;;;;;;;;;;;;5054598;28;5022;-62
2024/03/06 06:21:29;;;;;;;;;;;;;;;;;;5033160;28;4476;-63
2024/03/06 06:23:54;;;;;;;;;;;;;;;;;;5058419;28;5113;-63
2024/03/06 06:26:20;;;;;;;;;;;;;;;;;;5057323;28;1242;-62
2024/03/06 06:28:46;;;;;;;;;;;;;;;;;;5048196;28;4462;-61
2024/03/06 06:31:11;;;;;;;;;;;;;;;;;;5058667;28;5085;-62
2024/03/06 06:33:37;;;;;;;;;;;;;;;;;;5047142;28;5133;-62
2024/03/06 06:36:02;;;;;;;;;;;;;;;;;;5062704;28;5067;-62
2024/03/06 06:38:27;;;;;;;;;;;;;;;;;;5065846;28;1985;-62
2024/03/06 06:40:53;;;;;;;;;;;;;;;;;;5051448;28;4909;-62
2024/03/06 06:43:18;;;;;;;;;;;;;;;;;;5033134;28;4920;-62
2024/03/06 06:45:43;;;;;;;;;;;;;;;;;;5060894;28;5254;-62
2024/03/06 06:48:09;;;;;;;;;;;;;;;;;;5042324;28;4491;-61
2024/03/06 06:50:34;;;;;;;;;;;;;;;;;;5057307;28;3058;-62
2024/03/06 06:53:00;;;;;;;;;;;;;;;;;;5054333;28;4921;-61
2024/03/06 06:55:25;;;;;;;;;;;;;;;;;;5061491;28;4980;-62
2024/03/06 06:57:51;;;;;;;;;;;;;;;;;;5054589;28;5046;-62
2024/03/06 07:00:18;;;;;;;;;;;;;;;;;;5051273;28;4708;-61
2024/03/06 07:02:43;;;;;;;;;;;;;;;;;;5057853;28;1140;-61
2024/03/06 07:05:09;;;;;;;;;;;;;;;;;;5053869;28;4927;-61
2024/03/06 07:07:34;;;;;;;;;;;;;;;;;;5055219;28;4938;-62
2024/03/06 07:10:00;;;;;;;;;;;;;;;;;;5050234;28;5241;-62
2024/03/06 07:12:25;;;;;;;;;;;;;;;;;;5053882;28;5136;-65
2024/03/06 07:14:50;;;;;;;;;;;;;;;;;;5059121;28;3327;-64
2024/03/06 07:17:16;;;;;;;;;;;;;;;;;;5059078;28;4506;-62
2024/03/06 07:19:41;;;;;;;;;;;;;;;;;;5051998;28;4483;-63
2024/03/06 07:22:07;;;;;;;;;;;;;;;;;;5040351;28;4914;-63
2024/03/06 07:24:32;;;;;;;;;;;;;;;;;;5047332;28;4704;-61
2024/03/06 07:26:58;;;;;;;;;;;;;;;;;;5054707;28;5345;-62
2024/03/06 07:29:23;;;;;;;;;;;;;;;;;;5055108;28;3214;-62
2024/03/06 07:31:48;;;;;;;;;;;;;;;;;;5054827;28;5131;-64
2024/03/06 07:34:17;;;;;;;;;;;;;;;;;;5056301;28;5204;-63
2024/03/06 07:36:43;;;;;;;;;;;;;;;;;;5056117;28;5027;-62
2024/03/06 07:39:08;;;;;;;;;;;;;;;;;;5054179;28;4602;-61
2024/03/06 07:41:33;;;;;;;;;;;;;;;;;;5054436;28;3273;-63
2024/03/06 07:44:02;;;;;;;;;;;;;;;;;;5054234;28;5196;-65
2024/03/06 07:46:28;;;;;;;;;;;;;;;;;;5048353;28;5113;-62
2024/03/06 07:48:53;;;;;;;;;;;;;;;;;;5055903;28;5472;-62
2024/03/06 07:51:19;;;;;;;;;;;;;;;;;;5053920;28;5233;-61
2024/03/06 07:53:44;;;;;;;;;;;;;;;;;;5051921;28;1236;-63
2024/03/06 07:56:11;;;;;;;;;;;;;;;;;;5051521;28;5105;-64
2024/03/06 07:58:36;;;;;;;;;;;;;;;;;;5032388;28;4488;-63
2024/03/06 08:01:02;;;;;;;;;;;;;;;;;;5060773;28;5155;-63
2024/03/06 08:03:27;;;;;;;;;;;;;;;;;;5060688;28;4607;-63
2024/03/06 08:05:53;;;;;;;;;;;;;;;;;;5052578;28;3294;-61
2024/03/06 08:08:18;;;;;;;;;;;;;;;;;;5050845;28;4984;-60
2024/03/06 08:10:44;;;;;;;;;;;;;;;;;;5056879;28;4857;-62
2024/03/06 08:13:10;;;;;;;;;;;;;;;;;;5043144;28;5042;-62
2024/03/06 08:15:35;;;;;;;;;;;;;;;;;;5042248;28;4475;-63
2024/03/06 08:18:01;;;;;;;;;;;;;;;;;;5041942;28;4989;-61
2024/03/06 08:20:27;;;;;;;;;;;;;;;;;;5037478;28;1141;-61
2024/03/06 08:22:52;;;;;;;;;;;;;;;;;;5042915;28;4932;-61
2024/03/06 08:25:18;;;;;;;;;;;;;;;;;;5046219;28;4982;-61
2024/03/06 08:27:43;;;;;;;;;;;;;;;;;;5047365;28;4510;-63
2024/03/06 08:30:08;;;;;;;;;;;;;;;;;;5044460;28;4712;-61
2024/03/06 08:32:35;;;;;;;;;;;;;;;;;;5048942;28;1646;-61
2024/03/06 08:35:10;;;;;;;;;;;;;;;;;;5043275;28;5062;-62
2024/03/06 08:37:36;;;;;;;;;;;;;;;;;;5044228;28;5064;-61
2024/03/06 08:40:02;;;;;;;;;;;;;;;;;;5048237;28;5065;-63
2024/03/06 08:42:27;;;;;;;;;;;;;;;;;;5040906;28;5394;-62
2024/03/06 08:44:53;;;;;;;;;;;;;;;;;;5036236;28;3025;-60
2024/03/06 08:47:18;;;;;;;;;;;;;;;;;;5041415;28;4438;-61
2024/03/06 08:49:43;;;;;;;;;;;;;;;;;;5045144;28;4578;-61
2024/03/06 08:52:09;;;;;;;;;;;;;;;;;;5041597;28;5002;-62
2024/03/06 08:54:35;;;;;;;;;;;;;;;;;;5034956;28;5212;-61
2024/03/06 08:57:00;;;;;;;;;;;;;;;;;;5044179;28;4975;-64
2024/03/06 08:59:26;;;;;;;;;;;;;;;;;;5043735;28;3289;-61
2024/03/06 09:01:52;;;;;;;;;;;;;;;;;;5042181;28;4458;-61
2024/03/06 09:04:17;;;;;;;;;;;;;;;;;;5059040;28;5029;-62
2024/03/06 09:06:43;;;;;;;;;;;;;;;;;;5046718;28;5102;-60
2024/03/06 09:09:09;;;;;;;;;;;;;;;;;;5048135;28;5022;-60
2024/03/06 09:11:34;;;;;;;;;;;;;;;;;;5040435;28;1526;-61
2024/03/06 09:14:00;;;;;;;;;;;;;;;;;;5042340;28;5073;-63
2024/03/06 09:16:25;;;;;;;;;;;;;;;;;;5041050;28;5053;-61
2024/03/06 09:18:50;;;;;;;;;;;;;;;;;;5045837;28;4523;-61
2024/03/06 09:21:16;;;;;;;;;;;;;;;;;;5040654;28;5182;-61
2024/03/06 09:23:41;;;;;;;;;;;;;;;;;;5047005;28;3048;-62
2024/03/06 09:26:07;;;;;;;;;;;;;;;;;;5028531;28;5151;-62
2024/03/06 09:28:32;;;;;;;;;;;;;;;;;;5048864;28;4669;-61
2024/03/06 09:30:57;;;;;;;;;;;;;;;;;;5055423;28;4503;-62
2024/03/06 09:33:23;;;;;;;;;;;;;;;;;;5048249;28;4927;-61
2024/03/06 09:35:48;;;;;;;;;;;;;;;;;;5046336;28;1488;-61
2024/03/06 09:38:14;;;;;;;;;;;;;;;;;;5044231;28;4938;-61
2024/03/06 09:40:41;;;;;;;;;;;;;;;;;;5046223;28;4971;-62
2024/03/06 09:43:06;;;;;;;;;;;;;;;;;;5049994;28;5204;-62
2024/03/06 09:45:32;;;;;;;;;;;;;;;;;;5066560;28;4904;-62
2024/03/06 09:47:57;;;;;;;;;;;;;;;;;;5065002;28;5184;-61
2024/03/06 09:50:24;;;;;;;;;;;;;;;;;;5051043;28;1027;-62
2024/03/06 09:52:50;;;;;;;;;;;;;;;;;;5025886;28;4490;-60
2024/03/06 09:55:16;;;;;;;;;;;;;;;;;;5046556;28;4702;-61
2024/03/06 09:57:41;;;;;;;;;;;;;;;;;;5075426;28;4991;-74
2024/03/06 10:00:07;;;;;;;;;;;;;;;;;;5058845;28;4525;-74
2024/03/06 10:02:39;;;;;;;;;;;;;;;;;;5056359;28;1432;-74
2024/03/06 10:05:08;;;;;;;;;;;;;;;;;;5053149;28;4552;-74
2024/03/06 10:07:33;;;;;;;;;;;;;;;;;;5059400;28;5045;-74
2024/03/06 10:09:58;;;;;;;;;;;;;;;;;;5065076;28;5128;-74
2024/03/06 10:12:24;;;;;;;;;;;;;;;;;;5053057;28;4833;-74
2024/03/06 10:14:50;;;;;;;;;;;;;;;;;;5049847;28;3119;-74
2024/03/06 10:17:18;;;;;;;;;;;;;;;;;;5053242;28;4489;-74
2024/03/06 10:19:50;;;;;;;;;;;;;;;;;;5051525;28;4877;-74
2024/03/06 10:22:15;;;;;;;;;;;;;;;;;;5059974;28;5050;-74
2024/03/06 10:24:40;;;;;;;;;;;;;;;;;;5055266;28;4464;-74
2024/03/06 10:27:06;;;;;;;;;;;;;;;;;;5048365;28;4517;-74
2024/03/06 10:29:31;;;;;;;;;;;;;;;;;;5047826;28;3437;-74
2024/03/06 10:31:58;;;;;;;;;;;;;;;;;;5053171;28;4482;-75
2024/03/06 10:34:27;;;;;;;;;;;;;;;;;;5063166;28;4735;-75
2024/03/06 10:36:53;;;;;;;;;;;;;;;;;;5053361;28;5141;-74
2024/03/06 10:39:19;;;;;;;;;;;;;;;;;;5058369;28;4708;-75
2024/03/06 10:41:45;;;;;;;;;;;;;;;;;;5051284;28;1137;-74
2024/03/06 10:44:13;;;;;;;;;;;;;;;;;;5069655;28;5011;-74
2024/03/06 10:46:39;;;;;;;;;;;;;;;;;;5035924;28;4824;-74
2024/03/06 10:49:04;;;;;;;;;;;;;;;;;;5069436;28;5141;-74
2024/03/06 10:51:31;;;;;;;;;;;;;;;;;;5053919;28;4528;-74
2024/03/06 10:53:56;;;;;;;;;;;;;;;;;;5047645;28;4907;-74
2024/03/06 10:56:22;;;;;;;;;;;;;;;;;;5063218;28;1176;-74
2024/03/06 10:58:47;;;;;;;;;;;;;;;;;;5063213;28;4455;-74
2024/03/06 11:01:13;;;;;;;;;;;;;;;;;;5035101;28;4590;-64
2024/03/06 11:03:38;;;;;;;;;;;;;;;;;;5065177;28;5150;-62
2024/03/06 11:06:03;;;;;;;;;;;;;;;;;;5056333;28;4877;-61
2024/03/06 11:08:29;;;;;;;;;;;;;;;;;;5052486;28;1429;-63
2024/03/06 11:10:54;;;;;;;;;;;;;;;;;;5063372;28;5155;-63
2024/03/06 11:13:20;;;;;;;;;;;;;;;;;;5054442;28;5065;-63
2024/03/06 11:15:45;;;;;;;;;;;;;;;;;;5041314;28;4699;-61
2024/03/06 11:18:28;;;;;;;;;;;;;;;;;;5051165;28;4795;-63
2024/03/06 11:21:03;;;;;;;;;;;;;;;;;;5054491;28;1209;-62
2024/03/06 11:23:28;;;;;;;;;;;;;;;;;;5053143;28;4657;-62
2024/03/06 11:25:53;;;;;;;;;;;;;;;;;;5045832;28;5050;-63
2024/03/06 11:28:19;;;;;;;;;;;;;;;;;;5034613;28;4991;-62
2024/03/06 11:30:45;;;;;;;;;;;;;;;;;;5029730;28;4584;-62
2024/03/06 11:33:12;;;;;;;;;;;;;;;;;;5030503;28;5072;-62
2024/03/06 11:35:39;;;;;;;;;;;;;;;;;;5029016;28;1062;-61
2024/03/06 11:38:06;;;;;;;;;;;;;;;;;;5028697;28;4553;-63
2024/03/06 11:40:31;;;;;;;;;;;;;;;;;;5029047;28;5087;-62
2024/03/06 11:42:56;;;;;;;;;;;;;;;;;;5028092;28;5267;-62
2024/03/06 11:45:24;;;;;;;;;;;;;;;;;;5028305;28;4641;-64
2024/03/06 11:47:59;;;;;;;;;;;;;;;;;;5029193;28;2391;-65
2024/03/06 11:50:25;;;;;;;;;;;;;;;;;;5028011;28;4752;-64
2024/03/06 11:52:51;;;;;;;;;;;;;;;;;;5028908;28;5106;-66
2024/03/06 11:55:16;;;;;;;;;;;;;;;;;;5027006;28;4470;-65
2024/03/06 11:57:42;;;;;;;;;;;;;;;;;;5030308;28;4991;-67
2024/03/06 12:00:08;;;;;;;;;;;;;;;;;;5026649;28;4953;-73
2024/03/06 12:02:36;;;;;;;;;;;;;;;;;;5027703;28;3479;-69
2024/03/06 12:05:02;;;;;;;;;;;;;;;;;;5026564;28;4751;-73
2024/03/06 12:07:27;;;;;;;;;;;;;;;;;;5029607;28;5102;-74
2024/03/06 12:09:53;;;;;;;;;;;;;;;;;;5026493;28;4885;-73
2024/03/06 12:12:18;;;;;;;;;;;;;;;;;;5028712;28;5098;-74
2024/03/06 12:14:44;;;;;;;;;;;;;;;;;;5042190;28;3399;-73
2024/03/06 12:17:15;;;;;;;;;;;;;;;;;;5040231;28;4810;-73
2024/03/06 12:19:41;;;;;;;;;;;;;;;;;;5045546;28;4983;-74
2024/03/06 12:22:08;;;;;;;;;;;;;;;;;;5029457;28;4662;-75
2024/03/06 12:24:33;;;;;;;;;;;;;;;;;;5028183;28;4923;-71
2024/03/06 12:27:03;;;;;;;;;;;;;;;;;;5028763;28;4900;-70
2024/03/06 12:29:34;;;;;;;;;;;;;;;;;;5011353;28;3471;-69
2024/03/06 12:32:00;;;;;;;;;;;;;;;;;;5026500;28;4654;-70
2024/03/06 12:34:25;;;;;;;;;;;;;;;;;;5012909;28;5192;-67
2024/03/06 12:36:50;;;;;;;;;;;;;;;;;;5027947;28;4474;-70
2024/03/06 12:39:20;;;;;;;;;;;;;;;;;;5029782;28;4529;-66
2024/03/06 12:41:46;;;;;;;;;;;;;;;;;;5045056;28;1189;-70
2024/03/06 12:44:11;;;;;;;;;;;;;;;;;;5027352;28;4462;-71
2024/03/06 12:46:36;;;;;;;;;;;;;;;;;;5028579;28;5210;-72
2024/03/06 12:49:02;;;;;;;;;;;;;;;;;;5029594;28;4462;-68
2024/03/06 12:51:27;;;;;;;;;;;;;;;;;;5030727;28;5246;-68
2024/03/06 12:53:52;;;;;;;;;;;;;;;;;;5030919;28;1308;-71
2024/03/06 12:56:18;;;;;;;;;;;;;;;;;;5026332;28;4976;-69
2024/03/06 12:58:44;;;;;;;;;;;;;;;;;;5028595;28;4743;-69
2024/03/06 13:01:10;;;;;;;;;;;;;;;;;;5032265;28;5107;-68
2024/03/06 13:03:35;;;;;;;;;;;;;;;;;;5033177;28;5130;-69
2024/03/06 13:06:00;;;;;;;;;;;;;;;;;;5028455;28;5123;-68
2024/03/06 13:08:26;;;;;;;;;;;;;;;;;;5020745;28;1100;-62
2024/03/06 13:10:51;;;;;;;;;;;;;;;;;;5030988;28;5207;-63
2024/03/06 13:13:16;;;;;;;;;;;;;;;;;;5034035;28;4636;-63
2024/03/06 13:15:43;;;;;;;;;;;;;;;;;;5046104;28;4895;-61
2024/03/06 13:18:08;;;;;;;;;;;;;;;;;;5032930;28;5035;-63
2024/03/06 13:20:33;;;;;;;;;;;;;;;;;;5032634;28;2211;-63
2024/03/06 13:22:59;;;;;;;;;;;;;;;;;;5046144;28;4964;-69
2024/03/06 13:25:24;;;;;;;;;;;;;;;;;;5032466;28;5191;-60
2024/03/06 13:27:52;;;;;;;;;;;;;;;;;;5033357;28;5186;-62
2024/03/06 13:30:17;;;;;;;;;;;;;;;;;;5031994;28;5201;-65
2024/03/06 13:32:42;;;;;;;;;;;;;;;;;;5033576;28;1028;-64
2024/03/06 13:35:12;;;;;;;;;;;;;;;;;;5029768;28;4705;-75
2024/03/06 13:37:37;;;;;;;;;;;;;;;;;;5030726;28;5034;-78
2024/03/06 13:40:03;;;;;;;;;;;;;;;;;;5044946;28;4587;-76
2024/03/06 13:42:28;;;;;;;;;;;;;;;;;;5031412;28;4503;-76
2024/03/06 13:44:54;;;;;;;;;;;;;;;;;;5012582;28;3506;-74
2024/03/06 13:47:19;;;;;;;;;;;;;;;;;;5048880;28;4484;-73
2024/03/06 13:49:44;;;;;;;;;;;;;;;;;;5047661;28;5021;-73
2024/03/06 13:52:10;;;;;;;;;;;;;;;;;;5030757;28;5053;-73
2024/03/06 13:54:41;;;;;;;;;;;;;;;;;;5041971;28;5044;-76
2024/03/06 13:57:07;;;;;;;;;;;;;;;;;;5029144;28;5048;-73
2024/03/06 13:59:32;;;;;;;;;;;;;;;;;;5026800;28;3386;-73
2024/03/06 14:01:59;;;;;;;;;;;;;;;;;;5030142;28;4450;-72
2024/03/06 14:04:24;;;;;;;;;;;;;;;;;;5031618;28;4485;-68
2024/03/06 14:06:49;;;;;;;;;;;;;;;;;;5028713;28;4878;-75
2024/03/06 14:09:15;;;;;;;;;;;;;;;;;;5030477;28;4992;-76
2024/03/06 14:11:41;;;;;;;;;;;;;;;;;;5028722;28;1141;-70
2024/03/06 14:14:07;;;;;;;;;;;;;;;;;;5030195;28;4701;-68
2024/03/06 14:16:33;;;;;;;;;;;;;;;;;;5031276;28;4494;-67
2024/03/06 14:18:59;;;;;;;;;;;;;;;;;;5049395;28;5149;-73
2024/03/06 14:21:24;;;;;;;;;;;;;;;;;;5029927;28;4599;-70
2024/03/06 14:23:49;;;;;;;;;;;;;;;;;;5030962;28;3493;-71
2024/03/06 14:26:16;;;;;;;;;;;;;;;;;;5031659;28;5083;-69
2024/03/06 14:28:41;;;;;;;;;;;;;;;;;;5031888;28;4533;-70
2024/03/06 14:31:06;;;;;;;;;;;;;;;;;;5030971;28;5061;-69
2024/03/06 14:33:32;;;;;;;;;;;;;;;;;;5028111;28;5000;-63
2024/03/06 14:35:57;;;;;;;;;;;;;;;;;;5023990;28;4532;-63
2024/03/06 14:38:22;;;;;;;;;;;;;;;;;;5027576;28;3502;-59
2024/03/06 14:40:47;;;;;;;;;;;;;;;;;;5025310;28;5191;-60
2024/03/06 14:43:13;;;;;;;;;;;;;;;;;;5028891;28;5135;-64
2024/03/06 14:45:42;;;;;;;;;;;;;;;;;;5028440;28;4709;-59
2024/03/06 14:48:07;;;;;;;;;;;;;;;;;;5031231;28;4666;-70
2024/03/06 14:50:33;;;;;;;;;;;;;;;;;;5030481;28;3515;-72
2024/03/06 14:52:58;;;;;;;;;;;;;;;;;;5025768;28;5006;-68
2024/03/06 14:55:23;;;;;;;;;;;;;;;;;;5027012;28;5080;-63
2024/03/06 14:57:49;;;;;;;;;;;;;;;;;;5028270;28;5119;-70
2024/03/06 15:00:17;;;;;;;;;;;;;;;;;;5027739;28;4541;-67
2024/03/06 15:02:42;;;;;;;;;;;;;;;;;;5030230;28;1052;-66
2024/03/06 15:05:11;;;;;;;;;;;;;;;;;;5029502;28;4991;-68
2024/03/06 15:07:38;;;;;;;;;;;;;;;;;;5030718;28;4860;-65
2024/03/06 15:10:04;;;;;;;;;;;;;;;;;;5025356;28;5127;-67
2024/03/06 15:12:29;;;;;;;;;;;;;;;;;;5027417;28;5028;-66
2024/03/06 15:14:56;;;;;;;;;;;;;;;;;;5027442;28;4581;-67
2024/03/06 15:17:22;;;;;;;;;;;;;;;;;;5028610;28;3784;-70
2024/03/06 15:19:48;;;;;;;;;;;;;;;;;;5027979;28;5015;-69
2024/03/06 15:22:13;;;;;;;;;;;;;;;;;;5027217;28;5054;-67
2024/03/06 15:24:39;;;;;;;;;;;;;;;;;;5027665;28;5077;-66
2024/03/06 15:27:04;;;;;;;;;;;;;;;;;;5027280;28;5238;-68
2024/03/06 15:29:30;;;;;;;;;;;;;;;;;;5018551;28;3546;-67
2024/03/06 15:31:55;;;;;;;;;;;;;;;;;;5028862;28;5073;-76
2024/03/06 15:34:20;;;;;;;;;;;;;;;;;;5027977;28;4991;-69
2024/03/06 15:36:45;;;;;;;;;;;;;;;;;;5043560;28;5143;-68
2024/03/06 15:39:11;;;;;;;;;;;;;;;;;;5047771;28;5215;-67
2024/03/06 15:41:36;;;;;;;;;;;;;;;;;;5050177;28;3350;-62
2024/03/06 15:44:02;;;;;;;;;;;;;;;;;;5038860;28;5080;-59
2024/03/06 15:46:27;;;;;;;;;;;;;;;;;;5064109;28;4663;-61
2024/03/06 15:48:53;;;;;;;;;;;;;;;;;;5050892;28;4712;-60
2024/03/06 15:51:18;;;;;;;;;;;;;;;;;;5047408;28;5064;-60
2024/03/06 15:53:43;;;;;;;;;;;;;;;;;;5046220;28;3524;-59
2024/03/06 15:56:10;;;;;;;;;;;;;;;;;;5052596;28;5063;-59
2024/03/06 15:58:35;;;;;;;;;;;;;;;;;;5048383;28;4666;-59
2024/03/06 16:01:01;;;;;;;;;;;;;;;;;;5050709;28;5329;-61
2024/03/06 16:03:26;;;;;;;;;;;;;;;;;;5046871;28;5103;-59
2024/03/06 16:05:51;;;;;;;;;;;;;;;;;;5046004;28;3381;-61
2024/03/06 16:08:17;;;;;;;;;;;;;;;;;;5030264;28;4926;-63
2024/03/06 16:10:44;;;;;;;;;;;;;;;;;;5050844;28;4964;-62
2024/03/06 16:13:10;;;;;;;;;;;;;;;;;;5040925;28;6246;-61
2024/03/06 16:15:35;;;;;;;;;;;;;;;;;;5046074;28;4640;-59
2024/03/06 16:18:01;;;;;;;;;;;;;;;;;;5042603;28;5092;-61
2024/03/06 16:20:26;;;;;;;;;;;;;;;;;;5050789;28;3166;-63
2024/03/06 16:22:52;;;;;;;;;;;;;;;;;;5054747;28;5096;-61
2024/03/06 16:25:17;;;;;;;;;;;;;;;;;;5041290;28;5117;-61
2024/03/06 16:27:42;;;;;;;;;;;;;;;;;;5055512;28;5021;-59
2024/03/06 16:30:09;;;;;;;;;;;;;;;;;;5048175;28;5204;-60
2024/03/06 16:32:34;;;;;;;;;;;;;;;;;;5053688;28;3160;-59
2024/03/06 16:34:59;;;;;;;;;;;;;;;;;;5048684;28;4890;-59
2024/03/06 16:37:25;;;;;;;;;;;;;;;;;;5046550;28;4730;-61
2024/03/06 16:39:51;;;;;;;;;;;;;;;;;;5055264;28;5115;-60
2024/03/06 16:42:18;;;;;;;;;;;;;;;;;;5045631;28;4744;-59
2024/03/06 16:44:43;;;;;;;;;;;;;;;;;;5041516;28;3280;-59
2024/03/06 16:47:08;;;;;;;;;;;;;;;;;;5040547;28;4653;-59
2024/03/06 16:49:34;;;;;;;;;;;;;;;;;;5044212;28;4561;-60
2024/03/06 16:51:59;;;;;;;;;;;;;;;;;;5053350;28;5187;-59